createdAt,value
2023-04-25T00:01:34.568Z,13.35
2023-04-25T00:04:02.544Z,14.10
2023-04-25T00:06:31.018Z,17.90
2023-04-25T00:08:58.752Z,11.73
2023-04-25T00:11:27.836Z,13.30
2023-04-25T00:13:55.720Z,13.33
2023-04-25T00:16:24.786Z,11.70
2023-04-25T00:18:54.893Z,15.33
2023-04-25T00:21:23.211Z,12.07
2023-04-25T00:23:51.423Z,14.43
2023-04-25T00:26:19.310Z,11.03
2023-04-25T00:28:48.708Z,12.67
2023-04-25T00:31:16.529Z,16.53
2023-04-25T00:33:44.453Z,12.83
2023-04-25T00:36:12.248Z,11.50
2023-04-25T00:38:40.140Z,14.07
2023-04-25T00:41:09.187Z,14.87
2023-04-25T00:43:38.833Z,18.03
2023-04-25T00:46:08.048Z,14.23
2023-04-25T00:48:35.858Z,14.70
2023-04-25T00:51:03.822Z,22.67
2023-04-25T00:53:33.975Z,14.35
2023-04-25T00:56:01.682Z,11.70
2023-04-25T00:58:29.504Z,14.83
2023-04-25T01:00:59.298Z,13.47
2023-04-25T01:03:29.750Z,14.87
2023-04-25T01:05:58.135Z,11.70
2023-04-25T01:08:27.169Z,14.23
2023-04-25T01:10:54.896Z,11.67
2023-04-25T01:13:22.851Z,16.10
2023-04-25T01:15:50.612Z,10.47
2023-04-25T01:18:18.475Z,10.80
2023-04-25T01:20:48.459Z,11.30
2023-04-25T01:23:17.945Z,11.20
2023-04-25T01:25:46.117Z,13.97
2023-04-25T01:28:14.072Z,11.97
2023-04-25T01:30:42.726Z,13.07
2023-04-25T01:33:10.641Z,11.30
2023-04-25T01:35:38.370Z,16.92
2023-04-25T01:38:06.102Z,13.87
2023-04-25T01:40:36.004Z,17.20
2023-04-25T01:43:03.764Z,14.43
2023-04-25T01:45:31.534Z,16.45
2023-04-25T01:48:00.416Z,15.80
2023-04-25T01:50:28.260Z,15.60
2023-04-25T01:52:56.317Z,19.87
2023-04-25T01:55:24.263Z,14.00
2023-04-25T01:57:53.340Z,15.50
2023-04-25T02:00:21.720Z,13.63
2023-04-25T02:02:51.739Z,14.57
2023-04-25T02:05:19.749Z,16.27
2023-04-25T02:07:47.990Z,11.10
2023-04-25T02:10:15.923Z,18.40
2023-04-25T02:12:43.681Z,13.70
2023-04-25T02:15:12.930Z,12.33
2023-04-25T02:17:40.850Z,17.73
2023-04-25T02:20:09.271Z,14.20
2023-04-25T02:22:37.678Z,13.57
2023-04-25T02:25:06.411Z,16.37
2023-04-25T02:27:34.187Z,16.23
2023-04-25T02:30:02.021Z,15.67
2023-04-25T02:32:31.157Z,19.33
2023-04-25T02:34:59.558Z,18.13
2023-04-25T02:37:27.297Z,18.20
2023-04-25T02:39:55.036Z,14.00
2023-04-25T02:42:22.816Z,22.93
2023-04-25T02:44:50.546Z,14.50
2023-04-25T02:47:18.293Z,11.93
2023-04-25T02:49:47.554Z,15.00
2023-04-25T02:52:15.417Z,17.67
2023-04-25T02:54:43.248Z,14.37
2023-04-25T02:57:11.116Z,14.57
2023-04-25T02:59:38.848Z,16.03
2023-04-25T03:02:06.591Z,11.43
2023-04-25T03:04:35.003Z,12.93
2023-04-25T03:07:04.412Z,15.90
2023-04-25T03:09:32.190Z,14.60
2023-04-25T03:11:59.970Z,12.20
2023-04-25T03:14:27.749Z,15.60
2023-04-25T03:16:55.576Z,16.30
2023-04-25T03:19:23.343Z,13.20
2023-04-25T03:21:51.094Z,12.67
2023-04-25T03:24:20.428Z,13.30
2023-04-25T03:26:48.202Z,15.13
2023-04-25T03:29:15.909Z,13.33
2023-04-25T03:31:43.675Z,15.90
2023-04-25T03:34:11.493Z,16.83
2023-04-25T03:36:41.567Z,14.93
2023-04-25T03:39:09.816Z,15.50
2023-04-25T03:41:38.894Z,13.33
2023-04-25T03:44:06.613Z,16.23
2023-04-25T03:46:34.400Z,11.53
2023-04-25T03:49:02.175Z,14.13
2023-04-25T03:51:30.209Z,14.80
2023-04-25T03:53:57.949Z,16.63
2023-04-25T03:56:25.873Z,15.60
2023-04-25T03:58:55.712Z,12.60
2023-04-25T04:01:23.537Z,16.37
2023-04-25T04:03:51.642Z,17.60
2023-04-25T04:06:21.641Z,14.93
2023-04-25T04:08:49.410Z,16.60
2023-04-25T04:11:17.246Z,16.07
2023-04-25T04:13:44.963Z,17.03
2023-04-25T04:16:14.167Z,16.30
2023-04-25T04:18:41.917Z,18.40
2023-04-25T04:21:09.644Z,15.53
2023-04-25T04:23:47.642Z,22.07
2023-04-25T04:26:16.281Z,16.80
2023-04-25T04:28:44.937Z,15.97
2023-04-25T04:31:16.474Z,15.87
2023-04-25T04:33:45.602Z,20.27
2023-04-25T04:36:13.965Z,17.73
2023-04-25T04:38:43.278Z,14.93
2023-04-25T04:41:11.393Z,10.17
2023-04-25T04:43:40.455Z,14.33
2023-04-25T04:46:08.201Z,12.60
2023-04-25T04:48:37.380Z,16.03
2023-04-25T04:51:05.178Z,15.70
2023-04-25T04:53:33.301Z,13.43
2023-04-25T04:56:01.050Z,14.27
2023-04-25T04:58:30.851Z,13.80
2023-04-25T05:00:58.831Z,14.87
2023-04-25T05:03:26.700Z,16.50
2023-04-25T05:05:55.995Z,15.83
2023-04-25T05:08:23.808Z,19.40
2023-04-25T05:10:51.656Z,16.67
2023-04-25T05:13:19.391Z,16.83
2023-04-25T05:15:47.100Z,18.07
2023-04-25T05:18:15.067Z,15.67
2023-04-25T05:20:43.133Z,19.00
2023-04-25T05:23:12.228Z,13.63
2023-04-25T05:25:39.958Z,19.10
2023-04-25T05:28:07.822Z,18.10
2023-04-25T05:30:36.156Z,14.67
2023-04-25T05:33:03.964Z,17.53
2023-04-25T05:35:31.872Z,15.30
2023-04-25T05:37:59.635Z,20.37
2023-04-25T05:40:28.938Z,14.83
2023-04-25T05:42:56.706Z,21.33
2023-04-25T05:45:24.440Z,15.90
2023-04-25T05:47:52.194Z,16.00
2023-04-25T05:50:20.036Z,13.90
2023-04-25T05:52:47.925Z,15.20
2023-04-25T05:55:16.590Z,19.27
2023-04-25T05:57:46.251Z,22.53
2023-04-25T06:00:16.851Z,29.63
2023-04-25T06:02:44.724Z,18.87
2023-04-25T06:05:12.797Z,22.33
2023-04-25T06:07:40.770Z,22.00
2023-04-25T06:10:10.005Z,16.10
2023-04-25T06:12:38.105Z,18.13
2023-04-25T06:15:20.102Z,19.50
2023-04-25T06:17:54.867Z,17.43
2023-04-25T06:20:24.905Z,13.27
2023-04-25T06:22:53.567Z,17.97
2023-04-25T06:25:21.978Z,15.47
2023-04-25T06:27:49.794Z,12.93
2023-04-25T06:30:23.343Z,21.90
2023-04-25T06:32:51.212Z,15.60
2023-04-25T06:35:19.200Z,17.10
2023-04-25T06:37:47.067Z,17.40
2023-04-25T06:40:15.773Z,19.07
2023-04-25T06:42:43.497Z,22.83
2023-04-25T06:45:12.088Z,14.47
2023-04-25T06:47:41.384Z,17.13
2023-04-25T06:50:09.952Z,13.13
2023-04-25T06:52:37.724Z,17.37
2023-04-25T06:55:06.461Z,17.83
2023-04-25T06:57:34.235Z,21.23
2023-04-25T07:00:02.606Z,19.50
2023-04-25T07:02:30.643Z,17.77
2023-04-25T07:05:00.800Z,22.27
2023-04-25T07:07:28.629Z,16.07
2023-04-25T07:09:56.635Z,14.33
2023-04-25T07:12:24.402Z,21.30
2023-04-25T07:14:52.156Z,21.37
2023-04-25T07:17:19.930Z,14.47
2023-04-25T07:19:47.720Z,25.40
2023-04-25T07:22:16.800Z,33.00
2023-04-25T07:24:48.262Z,18.13
2023-04-25T07:27:16.048Z,19.47
2023-04-25T07:29:43.795Z,18.23
2023-04-25T07:32:13.318Z,14.80
2023-04-25T07:34:42.423Z,18.50
2023-04-25T07:37:10.217Z,18.87
2023-04-25T07:39:39.313Z,16.90
2023-04-25T07:42:08.986Z,22.20
2023-04-25T07:44:39.672Z,20.83
2023-04-25T07:47:08.977Z,15.30
2023-04-25T07:49:37.354Z,18.10
2023-04-25T07:52:06.991Z,17.40
2023-04-25T07:54:34.886Z,14.80
2023-04-25T07:57:11.761Z,16.00
2023-04-25T07:59:39.572Z,16.63
2023-04-25T08:02:07.670Z,23.43
2023-04-25T08:04:35.702Z,13.57
2023-04-25T08:07:03.678Z,17.27
2023-04-25T08:09:35.513Z,14.70
2023-04-25T08:12:04.932Z,9.60
2023-04-25T08:14:36.816Z,11.73
2023-04-25T08:17:05.368Z,14.37
2023-04-25T08:19:33.249Z,16.17
2023-04-25T08:22:00.997Z,12.60
2023-04-25T08:24:28.762Z,11.10
2023-04-25T08:26:56.930Z,12.30
2023-04-25T08:29:26.859Z,14.53
2023-04-25T08:31:54.741Z,19.17
2023-04-25T08:34:22.577Z,16.60
2023-04-25T08:36:50.854Z,16.63
2023-04-25T08:39:18.631Z,13.47
2023-04-25T08:41:46.710Z,15.00
2023-04-25T08:44:15.274Z,16.13
2023-04-25T08:46:47.767Z,27.57
2023-04-25T08:49:16.836Z,12.13
2023-04-25T08:51:48.532Z,10.80
2023-04-25T08:54:30.807Z,16.83
2023-04-25T08:57:04.780Z,13.63
2023-04-25T08:59:34.311Z,10.13
2023-04-25T09:02:04.742Z,10.53
2023-04-25T09:04:32.946Z,11.33
2023-04-25T09:07:00.991Z,10.53
2023-04-25T09:09:28.758Z,11.37
2023-04-25T09:11:56.604Z,14.00
2023-04-25T09:14:26.687Z,12.80
2023-04-25T09:17:02.172Z,10.57
2023-04-25T09:19:40.151Z,7.53
2023-04-25T09:22:09.793Z,16.67
2023-04-25T09:24:39.538Z,14.47
2023-04-25T09:27:11.745Z,10.20
2023-04-25T09:29:41.753Z,10.13
2023-04-25T09:32:18.964Z,12.43
2023-04-25T09:34:52.740Z,8.80
2023-04-25T09:37:22.514Z,12.43
2023-04-25T09:39:51.311Z,9.77
2023-04-25T09:42:19.634Z,10.83
2023-04-25T09:44:48.787Z,11.33
2023-04-25T09:47:18.633Z,14.10
2023-04-25T09:49:47.886Z,15.23
2023-04-25T09:52:17.914Z,12.55
2023-04-25T09:54:46.332Z,6.93
2023-04-25T09:57:16.910Z,9.97
2023-04-25T09:59:49.018Z,11.80
2023-04-25T10:02:20.463Z,8.00
2023-04-25T10:04:53.682Z,14.30
2023-04-25T10:07:24.099Z,11.00
2023-04-25T10:09:54.347Z,7.47
2023-04-25T10:12:22.218Z,7.70
2023-04-25T10:14:50.061Z,7.53
2023-04-25T10:17:18.638Z,11.50
2023-04-25T10:19:46.938Z,13.13
2023-04-25T10:22:21.996Z,7.37
2023-04-25T10:24:50.696Z,9.67
2023-04-25T10:27:19.182Z,14.27
2023-04-25T10:29:46.936Z,7.20
2023-04-25T10:32:15.627Z,9.63
2023-04-25T10:34:47.787Z,9.03
2023-04-25T10:37:21.099Z,12.20
2023-04-25T10:39:49.175Z,10.87
2023-04-25T10:42:16.875Z,6.50
2023-04-25T10:45:03.824Z,6.80
2023-04-25T10:47:37.948Z,12.10
2023-04-25T10:50:10.550Z,8.70
2023-04-25T10:52:41.000Z,10.53
2023-04-25T10:55:09.817Z,10.27
2023-04-25T10:57:42.983Z,10.47
2023-04-25T11:00:13.609Z,10.27
2023-04-25T11:02:46.381Z,9.13
2023-04-25T11:05:24.320Z,6.80
2023-04-25T11:08:06.474Z,11.93
2023-04-25T11:10:37.082Z,6.77
2023-04-25T11:13:05.413Z,12.00
2023-04-25T11:15:33.276Z,8.50
2023-04-25T11:18:01.831Z,11.20
2023-04-25T11:20:30.120Z,8.30
2023-04-25T11:25:30.763Z,12.40
2023-04-25T11:28:01.462Z,9.33
2023-04-25T11:30:31.489Z,7.17
2023-04-25T11:32:59.418Z,14.37
2023-04-25T11:35:28.509Z,11.93
2023-04-25T11:37:56.475Z,8.33
2023-04-25T11:40:25.877Z,10.07
2023-04-25T11:42:54.956Z,11.70
2023-04-25T11:45:25.734Z,10.03
2023-04-25T11:47:53.957Z,8.30
2023-04-25T11:50:21.804Z,8.90
2023-04-25T11:52:51.125Z,6.67
2023-04-25T11:55:20.993Z,8.90
2023-04-25T11:57:52.035Z,8.10
2023-04-25T12:00:21.918Z,8.63
2023-04-25T12:02:53.158Z,9.20
2023-04-25T12:05:32.016Z,9.30
2023-04-25T12:08:13.012Z,10.73
2023-04-25T12:10:42.194Z,6.67
2023-04-25T12:13:24.998Z,11.07
2023-04-25T12:15:53.225Z,11.13
2023-04-25T12:18:22.778Z,8.87
2023-04-25T12:20:50.695Z,12.20
2023-04-25T12:23:18.485Z,11.87
2023-04-25T12:25:48.065Z,6.40
2023-04-25T12:28:20.637Z,9.40
2023-04-25T12:30:57.288Z,5.33
2023-04-25T12:33:25.403Z,12.20
2023-04-25T12:35:53.724Z,9.47
2023-04-25T12:38:26.141Z,7.90
2023-04-25T12:40:54.869Z,10.57
2023-04-25T12:43:23.273Z,8.67
2023-04-25T12:45:52.152Z,8.60
2023-04-25T12:48:22.083Z,9.17
2023-04-25T12:50:52.480Z,12.30
2023-04-25T12:53:21.058Z,15.67
2023-04-25T12:55:49.831Z,7.00
2023-04-25T12:58:18.604Z,10.53
2023-04-25T13:00:47.252Z,11.17
2023-04-25T13:03:15.508Z,10.53
2023-04-25T13:05:44.897Z,9.83
2023-04-25T13:08:12.612Z,6.30
2023-04-25T13:10:41.138Z,7.27
2023-04-25T13:13:09.445Z,10.57
2023-04-25T13:15:37.444Z,9.73
2023-04-25T13:18:06.353Z,15.50
2023-04-25T13:20:34.191Z,15.47
2023-04-25T13:23:03.326Z,11.00
2023-04-25T13:25:31.314Z,8.13
2023-04-25T13:27:59.016Z,7.50
2023-04-25T13:30:26.887Z,8.80
2023-04-25T13:32:57.210Z,9.98
2023-04-25T13:35:25.561Z,8.23
2023-04-25T13:37:53.276Z,14.17
2023-04-25T13:40:25.149Z,7.30
2023-04-25T13:42:53.274Z,12.33
2023-04-25T13:45:21.377Z,13.53
2023-04-25T13:47:49.308Z,7.77
2023-04-25T13:50:17.212Z,6.70
2023-04-25T13:52:45.942Z,8.00
2023-04-25T13:55:13.860Z,8.00
2023-04-25T13:57:42.921Z,10.17
2023-04-25T14:00:11.793Z,6.33
2023-04-25T14:02:40.449Z,6.87
2023-04-25T14:05:10.433Z,7.27
2023-04-25T14:07:38.864Z,6.97
2023-04-25T14:10:07.890Z,7.30
2023-04-25T14:12:36.047Z,9.30
2023-04-25T14:15:06.017Z,6.90
2023-04-25T14:17:33.754Z,8.57
2023-04-25T14:20:01.501Z,7.97
2023-04-25T14:22:29.209Z,6.77
2023-04-25T14:24:56.962Z,6.80
2023-04-25T14:27:25.126Z,7.03
2023-04-25T14:29:53.565Z,8.20
2023-04-25T14:32:22.820Z,5.37
2023-04-25T14:34:50.511Z,7.80
2023-04-25T14:37:18.322Z,8.33
2023-04-25T14:39:46.554Z,6.13
2023-04-25T14:42:14.355Z,7.17
2023-04-25T14:44:42.098Z,8.80
2023-04-25T14:47:10.255Z,6.70
2023-04-25T14:49:39.320Z,6.63
2023-04-25T14:52:07.343Z,6.30
2023-04-25T14:54:35.326Z,6.80
2023-04-25T14:57:03.204Z,8.27
2023-04-25T14:59:30.998Z,9.33
2023-04-25T15:01:59.910Z,8.47
2023-04-25T15:04:27.863Z,6.13
2023-04-25T15:06:58.197Z,8.37
2023-04-25T15:09:26.044Z,6.80
2023-04-25T15:11:53.843Z,5.40
2023-04-25T15:14:21.618Z,6.27
2023-04-25T15:16:49.428Z,5.27
2023-04-25T15:19:17.218Z,7.50
2023-04-25T15:21:45.041Z,6.83
2023-04-25T15:24:17.500Z,8.05
2023-04-25T15:26:46.338Z,6.40
2023-04-25T15:29:14.062Z,4.97
2023-04-25T15:31:41.884Z,5.23
2023-04-25T15:34:09.677Z,5.90
2023-04-25T15:36:37.474Z,6.77
2023-04-25T15:39:05.274Z,5.70
2023-04-25T15:41:34.369Z,6.03
2023-04-25T15:44:02.501Z,7.90
2023-04-25T15:46:32.006Z,6.37
2023-04-25T15:48:59.860Z,7.03
2023-04-25T15:51:28.142Z,6.20
2023-04-25T15:53:56.307Z,6.30
2023-04-25T15:56:24.515Z,11.23
2023-04-25T15:58:55.157Z,9.60
2023-04-25T16:01:24.447Z,6.77
2023-04-25T16:03:53.561Z,7.00
2023-04-25T16:06:22.210Z,5.37
2023-04-25T16:08:49.912Z,8.63
2023-04-25T16:11:17.655Z,8.03
2023-04-25T16:13:45.745Z,15.93
2023-04-25T16:16:15.926Z,6.53
2023-04-25T16:18:43.704Z,7.60
2023-04-25T16:21:17.100Z,9.00
2023-04-25T16:23:45.199Z,8.73
2023-04-25T16:26:12.999Z,10.27
2023-04-25T16:28:40.791Z,9.20
2023-04-25T16:31:08.823Z,8.87
2023-04-25T16:33:37.900Z,9.40
2023-04-25T16:36:06.752Z,7.33
2023-04-25T16:38:34.583Z,14.93
2023-04-25T16:41:02.496Z,30.00
2023-04-25T16:43:30.263Z,10.30
2023-04-25T16:45:58.032Z,12.37
2023-04-25T16:48:26.005Z,11.10
2023-04-25T16:50:55.108Z,12.03
2023-04-25T16:53:23.187Z,7.50
2023-04-25T16:55:51.018Z,6.53
2023-04-25T16:58:18.740Z,8.20
2023-04-25T17:00:47.678Z,9.23
2023-04-25T17:03:16.042Z,14.10
2023-04-25T17:05:43.966Z,7.77
2023-04-25T17:08:13.034Z,8.70
2023-04-25T17:10:40.764Z,7.60
2023-04-25T17:13:08.573Z,7.47
2023-04-25T17:15:36.423Z,6.78
2023-04-25T17:18:04.344Z,7.63
2023-04-25T17:20:32.690Z,6.67
2023-04-25T17:23:01.139Z,8.53
2023-04-25T17:25:30.250Z,5.40
2023-04-25T17:27:57.974Z,8.67
2023-04-25T17:30:26.823Z,8.00
2023-04-25T17:32:54.727Z,8.53
2023-04-25T17:35:23.174Z,8.47
2023-04-25T17:37:51.477Z,9.63
2023-04-25T17:40:19.966Z,9.50
2023-04-25T17:42:49.074Z,8.20
2023-04-25T17:45:17.410Z,10.60
2023-04-25T17:47:45.348Z,11.57
2023-04-25T17:50:13.467Z,14.10
2023-04-25T17:52:41.331Z,11.77
2023-04-25T17:55:09.863Z,9.03
2023-04-25T17:57:37.703Z,10.13
2023-04-25T18:00:09.133Z,11.33
2023-04-25T18:02:37.223Z,11.83
2023-04-25T18:05:09.446Z,11.30
2023-04-25T18:07:37.824Z,7.93
2023-04-25T18:10:06.751Z,12.77
2023-04-25T18:12:35.005Z,16.92
2023-04-25T18:15:05.802Z,16.73
2023-04-25T18:17:39.833Z,8.70
2023-04-25T18:20:11.766Z,12.00
2023-04-25T18:22:39.624Z,9.63
2023-04-25T18:25:09.962Z,13.67
2023-04-25T18:27:38.368Z,11.37
2023-04-25T18:30:08.751Z,11.50
2023-04-25T18:32:38.225Z,10.40
2023-04-25T18:35:07.194Z,11.77
2023-04-25T18:37:34.891Z,24.97
2023-04-25T18:40:06.225Z,14.00
2023-04-25T18:42:34.259Z,8.60
2023-04-25T18:45:02.096Z,6.33
2023-04-25T18:47:30.251Z,9.03
2023-04-25T18:49:59.295Z,7.53
2023-04-25T18:52:27.128Z,6.77
2023-04-25T18:54:54.933Z,5.87
2023-04-25T18:57:22.751Z,9.63
2023-04-25T18:59:50.449Z,6.30
2023-04-25T19:02:19.008Z,8.87
2023-04-25T19:04:47.340Z,9.33
2023-04-25T19:07:17.141Z,6.97
2023-04-25T19:09:44.946Z,9.07
2023-04-25T19:12:12.714Z,6.43
2023-04-25T19:14:40.562Z,7.70
2023-04-25T19:17:08.527Z,13.00
2023-04-25T19:19:36.346Z,5.50
2023-04-25T19:22:04.110Z,10.23
2023-04-25T19:24:34.468Z,6.13
2023-04-25T19:27:02.836Z,6.50
2023-04-25T19:29:32.505Z,7.40
2023-04-25T19:32:02.940Z,7.63
2023-04-25T19:34:30.649Z,8.63
2023-04-25T19:36:58.433Z,8.43
2023-04-25T19:39:26.225Z,9.20
2023-04-25T19:41:56.588Z,6.50
2023-04-25T19:44:24.579Z,5.97
2023-04-25T19:46:52.360Z,7.63
2023-04-25T19:49:21.222Z,6.20
2023-04-25T19:51:49.029Z,7.90
2023-04-25T19:54:16.796Z,7.53
2023-04-25T19:56:44.655Z,6.13
2023-04-25T19:59:13.685Z,17.37
2023-04-25T20:01:41.658Z,11.63
2023-04-25T20:04:09.464Z,9.10
2023-04-25T20:06:37.167Z,9.50
2023-04-25T20:09:06.252Z,7.10
2023-04-25T20:11:34.144Z,7.80
2023-04-25T20:14:02.007Z,10.50
2023-04-25T20:16:31.212Z,7.20
2023-04-25T20:18:59.081Z,9.60
2023-04-25T20:21:27.388Z,7.27
2023-04-25T20:23:55.383Z,8.63
2023-04-25T20:26:23.640Z,10.07
2023-04-25T20:28:51.749Z,9.13
2023-04-25T20:31:19.810Z,7.10
2023-04-25T20:33:49.191Z,9.57
2023-04-25T20:36:16.904Z,12.83
2023-04-25T20:38:44.644Z,8.70
2023-04-25T20:41:13.027Z,8.40
2023-04-25T20:43:42.190Z,8.13
2023-04-25T20:46:10.328Z,7.77
2023-04-25T20:48:38.135Z,10.93
2023-04-25T20:51:07.623Z,7.20
2023-04-25T20:53:35.734Z,9.70
2023-04-25T20:56:04.540Z,7.80
2023-04-25T20:58:32.331Z,10.15
2023-04-25T21:01:01.296Z,7.20
2023-04-25T21:03:30.141Z,6.37
2023-04-25T21:05:58.644Z,8.00
2023-04-25T21:08:28.009Z,6.80
2023-04-25T21:10:55.894Z,10.63
2023-04-25T21:13:23.641Z,6.17
2023-04-25T21:15:51.566Z,8.23
2023-04-25T21:18:19.287Z,6.73
2023-04-25T21:20:47.081Z,10.03
2023-04-25T21:23:15.582Z,7.33
2023-04-25T21:25:44.848Z,7.47
2023-04-25T21:28:12.964Z,13.27
2023-04-25T21:30:40.924Z,9.07
2023-04-25T21:33:08.719Z,9.87
2023-04-25T21:35:37.028Z,8.53
2023-04-25T21:38:04.774Z,7.90
2023-04-25T21:40:32.625Z,10.70
2023-04-25T21:43:01.894Z,7.30
2023-04-25T21:45:30.888Z,8.60
2023-04-25T21:47:59.020Z,9.00
2023-04-25T21:50:26.864Z,10.50
2023-04-25T21:52:58.752Z,8.60
2023-04-25T21:55:27.001Z,9.13
2023-04-25T21:57:54.781Z,8.87
2023-04-25T22:00:27.621Z,15.83
2023-04-25T22:02:56.438Z,8.90
2023-04-25T22:05:26.504Z,8.10
2023-04-25T22:07:56.936Z,7.03
2023-04-25T22:10:25.213Z,7.37
2023-04-25T22:12:53.161Z,9.33
2023-04-25T22:15:23.539Z,11.77
2023-04-25T22:17:54.997Z,9.03
2023-04-25T22:20:26.041Z,8.30
2023-04-25T22:22:55.497Z,6.80
2023-04-25T22:25:23.823Z,19.00
2023-04-25T22:27:52.127Z,9.30
2023-04-25T22:30:19.890Z,7.80
2023-04-25T22:32:47.768Z,7.17
2023-04-25T22:35:17.339Z,10.27
2023-04-25T22:37:45.154Z,9.10
2023-04-25T22:40:13.994Z,7.20
2023-04-25T22:42:43.222Z,6.77
2023-04-25T22:45:12.223Z,9.40
2023-04-25T22:47:40.839Z,11.60
2023-04-25T22:50:13.340Z,10.33
2023-04-25T22:52:43.028Z,13.50
2023-04-25T22:55:11.983Z,10.23
2023-04-25T22:57:40.156Z,11.40
2023-04-25T23:00:16.680Z,9.43
2023-04-25T23:02:46.509Z,10.50
2023-04-25T23:05:15.522Z,8.37
2023-04-25T23:07:45.519Z,12.57
2023-04-25T23:10:14.059Z,15.83
2023-04-25T23:12:42.239Z,8.37
2023-04-25T23:15:12.284Z,12.57
2023-04-25T23:17:40.296Z,12.13
2023-04-25T23:20:10.631Z,11.20
2023-04-25T23:22:38.911Z,13.07
2023-04-25T23:25:09.859Z,8.30
2023-04-25T23:27:38.071Z,8.63
2023-04-25T23:30:06.881Z,9.37
2023-04-25T23:32:34.678Z,10.73
2023-04-25T23:35:02.515Z,11.77
2023-04-25T23:37:31.757Z,12.20
2023-04-25T23:39:59.481Z,9.27
2023-04-25T23:42:28.549Z,16.93
2023-04-25T23:44:56.286Z,14.27
2023-04-25T23:47:24.085Z,9.20
2023-04-25T23:49:51.848Z,13.18
2023-04-25T23:52:19.681Z,8.63
2023-04-25T23:54:47.387Z,14.23
2023-04-25T23:57:16.631Z,9.63
2023-04-25T23:59:45.927Z,10.13
